createdAt,value
2019-05-12T00:00:21.478Z,11.80
2019-05-12T00:02:50.360Z,11.90
2019-05-12T00:05:19.252Z,11.80
2019-05-12T00:07:48.643Z,11.80
2019-05-12T00:10:18.127Z,11.80
2019-05-12T00:12:48.340Z,11.80
2019-05-12T00:15:19.339Z,11.70
2019-05-12T00:17:48.341Z,11.80
2019-05-12T00:20:18.203Z,11.80
2019-05-12T00:22:49.260Z,11.70
2019-05-12T00:25:18.116Z,11.70
2019-05-12T00:27:48.718Z,11.80
2019-05-12T00:30:35.277Z,11.70
2019-05-12T00:33:04.413Z,11.50
2019-05-12T00:35:33.340Z,11.60
2019-05-12T00:38:02.162Z,11.50
2019-05-12T00:40:30.833Z,11.50
2019-05-12T00:42:59.633Z,11.50
2019-05-12T00:45:29.162Z,11.50
2019-05-12T00:47:58.649Z,11.60
2019-05-12T00:50:28.842Z,11.60
2019-05-12T00:52:58.341Z,11.60
2019-05-12T00:55:29.016Z,11.60
2019-05-12T00:57:58.289Z,11.60
2019-05-12T01:00:29.334Z,11.50
2019-05-12T01:02:58.300Z,11.40
2019-05-12T01:05:29.101Z,11.40
2019-05-12T01:07:58.284Z,11.50
2019-05-12T01:10:28.593Z,11.50
2019-05-12T01:12:58.305Z,11.40
2019-05-12T01:15:28.780Z,11.30
2019-05-12T01:17:58.529Z,11.20
2019-05-12T01:20:28.412Z,11.30
2019-05-12T01:22:58.185Z,11.30
2019-05-12T01:25:29.011Z,11.40
2019-05-12T01:27:58.825Z,11.40
2019-05-12T01:30:28.528Z,11.40
2019-05-12T01:32:58.314Z,11.50
2019-05-12T01:35:28.156Z,11.40
2019-05-12T01:37:58.790Z,11.50
2019-05-12T01:40:28.684Z,11.50
2019-05-12T01:42:58.487Z,11.50
2019-05-12T01:45:28.817Z,11.40
2019-05-12T01:47:59.152Z,11.40
2019-05-12T01:50:28.587Z,11.40
2019-05-12T01:52:58.720Z,11.40
2019-05-12T01:55:28.304Z,11.50
2019-05-12T01:57:57.981Z,11.40
2019-05-12T02:00:28.216Z,11.40
2019-05-12T02:02:58.569Z,11.20
2019-05-12T02:05:28.179Z,11.10
2019-05-12T02:07:58.699Z,11.20
2019-05-12T02:10:28.687Z,11.00
2019-05-12T02:12:59.478Z,11.10
2019-05-12T02:15:28.242Z,10.90
2019-05-12T02:17:58.896Z,11.00
2019-05-12T02:20:28.774Z,11.00
2019-05-12T02:22:58.361Z,11.00
2019-05-12T02:25:28.689Z,11.00
2019-05-12T02:27:58.382Z,11.00
2019-05-12T02:30:30.509Z,11.00
2019-05-12T02:32:59.445Z,10.90
2019-05-12T02:35:28.109Z,10.90
2019-05-12T02:37:56.892Z,10.80
2019-05-12T02:40:25.787Z,10.80
2019-05-12T02:42:55.197Z,10.90
2019-05-12T02:45:25.241Z,10.90
2019-05-12T02:47:54.734Z,10.70
2019-05-12T02:50:36.955Z,10.60
2019-05-12T02:53:06.537Z,10.60
2019-05-12T02:55:35.881Z,10.40
2019-05-12T02:58:05.952Z,10.20
2019-05-12T03:00:35.833Z,10.30
2019-05-12T03:03:05.717Z,10.30
2019-05-12T03:05:35.168Z,10.20
2019-05-12T03:08:05.118Z,10.20
2019-05-12T03:10:35.658Z,10.10
2019-05-12T03:13:04.852Z,10.00
2019-05-12T03:15:36.647Z,10.00
2019-05-12T03:18:06.073Z,10.00
2019-05-12T03:20:35.417Z,10.10
2019-05-12T03:23:06.234Z,10.10
2019-05-12T03:25:35.683Z,10.10
2019-05-12T03:28:08.285Z,10.00
2019-05-12T03:30:38.547Z,10.00
2019-05-12T03:33:09.561Z,10.00
2019-05-12T03:35:42.580Z,10.10
2019-05-12T03:38:07.038Z,10.10
2019-05-12T03:40:38.578Z,10.20
2019-05-12T03:43:06.445Z,10.20
2019-05-12T03:45:36.249Z,10.10
2019-05-12T03:48:06.013Z,10.10
2019-05-12T03:50:35.507Z,10.10
2019-05-12T03:53:09.871Z,10.00
2019-05-12T03:55:40.482Z,10.10
2019-05-12T03:58:06.160Z,10.20
2019-05-12T04:00:36.189Z,10.10
2019-05-12T04:03:06.034Z,10.10
2019-05-12T04:05:36.447Z,10.00
2019-05-12T04:08:06.400Z,10.00
2019-05-12T04:10:36.427Z,10.00
2019-05-12T04:13:05.744Z,10.00
2019-05-12T04:15:35.512Z,10.10
2019-05-12T04:18:05.933Z,10.00
2019-05-12T04:20:36.048Z,9.90
2019-05-12T04:23:06.258Z,9.90
2019-05-12T04:25:51.236Z,9.90
2019-05-12T04:28:07.660Z,9.90
2019-05-12T04:30:36.425Z,9.90
2019-05-12T04:33:05.982Z,9.80
2019-05-12T04:35:35.790Z,9.80
2019-05-12T04:38:05.361Z,9.80
2019-05-12T04:40:35.890Z,9.80
2019-05-12T04:43:06.300Z,9.80
2019-05-12T04:45:35.743Z,9.80
2019-05-12T04:48:06.088Z,9.90
2019-05-12T04:50:35.723Z,9.80
2019-05-12T04:53:06.162Z,9.80
2019-05-12T04:55:36.209Z,9.80
2019-05-12T04:58:05.994Z,9.80
2019-05-12T05:00:35.720Z,9.80
2019-05-12T05:03:05.934Z,9.90
2019-05-12T05:05:35.878Z,10.00
2019-05-12T05:08:05.395Z,10.10
2019-05-12T05:10:34.945Z,10.10
2019-05-12T05:13:05.045Z,10.20
2019-05-12T05:15:35.046Z,10.20
2019-05-12T05:18:06.499Z,10.20
2019-05-12T05:20:34.901Z,10.30
2019-05-12T05:23:04.437Z,10.30
2019-05-12T05:25:35.166Z,10.40
2019-05-12T05:28:04.227Z,10.50
2019-05-12T05:30:34.115Z,10.40
2019-05-12T05:33:04.663Z,10.40
2019-05-12T05:35:39.259Z,10.40
2019-05-12T05:38:05.457Z,10.30
2019-05-12T05:40:35.815Z,10.30
2019-05-12T05:45:35.135Z,10.20
2019-05-12T05:48:07.433Z,10.30
2019-05-12T05:50:34.314Z,10.30
2019-05-12T05:53:04.118Z,10.40
2019-05-12T05:55:34.291Z,10.40
2019-05-12T05:58:10.366Z,10.50
2019-05-12T06:00:39.022Z,10.50
2019-05-12T06:03:06.133Z,10.50
2019-05-12T06:05:38.413Z,10.50
2019-05-12T06:08:09.517Z,10.40
2019-05-12T06:10:40.351Z,10.50
2019-05-12T06:13:06.610Z,10.60
2019-05-12T06:15:40.405Z,10.60
2019-05-12T06:18:05.920Z,10.70
2019-05-12T06:20:37.985Z,10.70
2019-05-12T06:23:05.245Z,10.70
2019-05-12T06:25:46.023Z,10.70
2019-05-12T06:28:08.690Z,10.70
2019-05-12T06:30:44.607Z,10.70
2019-05-12T06:33:06.626Z,10.60
2019-05-12T06:35:42.038Z,10.70
2019-05-12T06:38:05.934Z,10.60
2019-05-12T06:40:41.022Z,10.60
2019-05-12T06:43:05.230Z,10.60
2019-05-12T06:45:42.070Z,10.40
2019-05-12T06:48:05.192Z,10.40
2019-05-12T06:50:39.230Z,10.40
2019-05-12T06:53:05.503Z,10.30
2019-05-12T06:55:39.098Z,10.20
2019-05-12T06:58:05.872Z,10.30
2019-05-12T07:00:35.483Z,10.30
2019-05-12T07:03:05.396Z,10.30
2019-05-12T07:05:38.975Z,10.30
2019-05-12T07:08:07.675Z,10.40
2019-05-12T07:10:43.149Z,10.50
2019-05-12T07:13:07.131Z,10.60
2019-05-12T07:15:40.301Z,10.60
2019-05-12T07:18:13.513Z,10.50
2019-05-12T07:20:43.407Z,10.50
2019-05-12T07:23:14.061Z,10.60
2019-05-12T07:25:44.445Z,10.70
2019-05-12T07:28:14.480Z,10.60
2019-05-12T07:30:44.054Z,10.60
2019-05-12T07:33:14.500Z,10.70
2019-05-12T07:35:44.419Z,10.70
2019-05-12T07:38:20.952Z,10.70
2019-05-12T07:40:45.155Z,10.70
2019-05-12T07:43:18.621Z,10.70
2019-05-12T07:45:45.149Z,10.70
2019-05-12T07:48:14.206Z,10.70
2019-05-12T07:50:43.299Z,10.80
2019-05-12T07:53:14.306Z,10.80
2019-05-12T07:55:47.609Z,10.70
2019-05-12T07:58:18.305Z,10.80
2019-05-12T08:00:44.215Z,10.90
2019-05-12T08:03:20.694Z,11.00
2019-05-12T08:05:44.089Z,11.00
2019-05-12T08:08:14.529Z,11.00
2019-05-12T08:10:44.403Z,11.00
2019-05-12T08:13:14.824Z,11.10
2019-05-12T08:15:45.710Z,11.20
2019-05-12T08:18:14.351Z,11.20
2019-05-12T08:20:43.684Z,11.10
2019-05-12T08:23:14.179Z,11.20
2019-05-12T08:25:43.632Z,11.30
2019-05-12T08:28:18.355Z,11.40
2019-05-12T08:30:49.818Z,11.50
2019-05-12T08:33:14.670Z,11.60
2019-05-12T08:35:44.052Z,11.60
2019-05-12T08:38:14.439Z,11.60
2019-05-12T08:40:46.407Z,11.60
2019-05-12T08:43:14.868Z,11.70
2019-05-12T08:45:44.351Z,11.80
2019-05-12T08:48:21.499Z,11.90
2019-05-12T08:50:46.186Z,11.80
2019-05-12T08:53:20.342Z,11.90
2019-05-12T08:55:44.822Z,11.90
2019-05-12T08:58:29.744Z,11.80
2019-05-12T09:00:49.756Z,11.70
2019-05-12T09:03:14.772Z,11.80
2019-05-12T09:05:44.528Z,11.80
2019-05-12T09:08:14.011Z,11.80
2019-05-12T09:10:45.089Z,11.80
2019-05-12T09:13:14.379Z,11.80
2019-05-12T09:15:43.749Z,11.60
2019-05-12T09:18:14.400Z,11.60
2019-05-12T09:20:48.873Z,11.60
2019-05-12T09:23:13.735Z,11.50
2019-05-12T09:25:45.273Z,11.40
2019-05-12T09:28:13.860Z,11.30
2019-05-12T09:30:45.925Z,11.40
2019-05-12T09:33:14.060Z,11.50
2019-05-12T09:35:43.824Z,11.40
2019-05-12T09:38:21.281Z,11.50
2019-05-12T09:40:43.838Z,11.40
2019-05-12T09:43:13.766Z,11.40
2019-05-12T09:45:51.581Z,11.40
2019-05-12T09:48:14.065Z,11.50
2019-05-12T09:50:46.320Z,11.50
2019-05-12T09:53:14.523Z,11.60
2019-05-12T09:55:43.955Z,11.60
2019-05-12T09:58:13.960Z,11.60
2019-05-12T10:00:44.582Z,11.60
2019-05-12T10:03:13.964Z,11.50
2019-05-12T10:05:44.251Z,11.60
2019-05-12T10:08:13.862Z,11.60
2019-05-12T10:10:47.050Z,11.60
2019-05-12T10:13:20.173Z,11.70
2019-05-12T10:15:45.961Z,11.70
2019-05-12T10:18:14.979Z,11.60
2019-05-12T10:20:44.243Z,11.60
2019-05-12T10:23:18.252Z,11.70
2019-05-12T10:25:44.574Z,11.70
2019-05-12T10:28:16.120Z,11.70
2019-05-12T10:30:47.337Z,11.70
2019-05-12T10:33:14.651Z,11.60
2019-05-12T10:35:43.988Z,11.70
2019-05-12T10:38:13.723Z,11.80
2019-05-12T10:40:44.431Z,11.80
2019-05-12T10:43:13.664Z,11.70
2019-05-12T10:45:44.169Z,11.70
2019-05-12T10:48:14.162Z,11.70
2019-05-12T10:50:44.278Z,11.80
2019-05-12T10:53:15.626Z,11.70
2019-05-12T10:55:44.185Z,11.80
2019-05-12T10:58:14.526Z,11.70
2019-05-12T11:00:44.402Z,11.70
2019-05-12T11:03:15.578Z,11.60
2019-05-12T11:05:44.136Z,11.60
2019-05-12T11:08:14.365Z,11.50
2019-05-12T11:10:43.619Z,11.60
2019-05-12T11:13:14.493Z,11.50
2019-05-12T11:15:47.768Z,11.50
2019-05-12T11:18:14.218Z,11.60
2019-05-12T11:20:45.054Z,11.50
2019-05-12T11:23:13.829Z,11.60
2019-05-12T11:25:43.976Z,11.50
2019-05-12T11:28:13.986Z,11.50
2019-05-12T11:30:43.687Z,11.50
2019-05-12T11:33:12.984Z,11.30
2019-05-12T11:35:43.528Z,11.20
2019-05-12T11:38:13.467Z,11.10
2019-05-12T11:40:43.807Z,11.10
2019-05-12T11:43:14.408Z,11.00
2019-05-12T11:45:44.204Z,10.90
2019-05-12T11:48:14.376Z,10.90
2019-05-12T11:50:49.400Z,10.80
2019-05-12T11:53:13.986Z,10.90
2019-05-12T11:55:43.734Z,10.80
2019-05-12T11:58:12.839Z,10.70
2019-05-12T12:00:46.127Z,10.60
2019-05-12T12:03:17.850Z,10.60
2019-05-12T12:05:45.453Z,10.50
2019-05-12T12:08:14.626Z,10.50
2019-05-12T12:10:43.840Z,10.50
2019-05-12T12:13:14.134Z,10.50
2019-05-12T12:15:43.153Z,10.60
2019-05-12T12:18:13.404Z,10.60
2019-05-12T12:20:44.093Z,10.50
2019-05-12T12:23:14.065Z,10.50
2019-05-12T12:25:47.802Z,10.60
2019-05-12T12:28:13.724Z,10.50
2019-05-12T12:30:47.333Z,10.40
2019-05-12T12:33:14.360Z,10.50
2019-05-12T12:35:44.560Z,10.60
2019-05-12T12:38:14.102Z,10.60
2019-05-12T12:40:44.152Z,10.60
2019-05-12T12:43:13.724Z,10.60
2019-05-12T12:45:44.398Z,10.60
2019-05-12T12:48:13.811Z,10.60
2019-05-12T12:50:44.544Z,10.60
2019-05-12T12:53:13.407Z,10.60
2019-05-12T12:55:43.708Z,10.60
2019-05-12T12:58:14.113Z,10.60
2019-05-12T13:00:48.076Z,10.70
2019-05-12T13:03:14.416Z,10.70
2019-05-12T13:05:43.912Z,10.80
2019-05-12T13:08:13.190Z,10.70
2019-05-12T13:10:47.078Z,10.70
2019-05-12T13:13:14.197Z,10.60
2019-05-12T13:15:44.376Z,10.70
2019-05-12T13:18:17.456Z,10.70
2019-05-12T13:20:44.293Z,10.70
2019-05-12T13:23:14.192Z,10.70
2019-05-12T13:25:50.056Z,10.80
2019-05-12T13:28:18.851Z,11.10
2019-05-12T13:30:48.714Z,11.20
2019-05-12T13:33:18.198Z,11.20
2019-05-12T13:35:50.067Z,11.40
2019-05-12T13:38:15.817Z,11.50
2019-05-12T13:40:44.937Z,11.60
2019-05-12T13:43:15.710Z,11.50
2019-05-12T13:45:44.952Z,11.60
2019-05-12T13:48:17.873Z,11.70
2019-05-12T13:50:44.701Z,11.70
2019-05-12T13:53:14.017Z,11.80
2019-05-12T13:55:45.478Z,11.90
2019-05-12T13:58:13.759Z,11.90
2019-05-12T14:00:50.754Z,12.00
2019-05-12T14:03:13.944Z,11.90
2019-05-12T14:05:50.408Z,12.00
2019-05-12T14:08:14.645Z,12.00
2019-05-12T14:10:53.287Z,12.10
2019-05-12T14:13:14.215Z,12.20
2019-05-12T14:15:44.343Z,12.30
2019-05-12T14:18:16.435Z,12.40
2019-05-12T14:20:45.173Z,12.50
2019-05-12T14:23:14.780Z,12.60
2019-05-12T14:25:44.033Z,12.70
2019-05-12T14:28:16.305Z,12.80
2019-05-12T14:30:49.605Z,12.90
2019-05-12T14:33:14.434Z,13.00
2019-05-12T14:35:45.895Z,13.10
2019-05-12T14:38:14.319Z,13.20
2019-05-12T14:40:43.481Z,13.10
2019-05-12T14:43:16.927Z,13.20
2019-05-12T14:45:44.042Z,13.20
2019-05-12T14:48:13.689Z,13.10
2019-05-12T14:50:44.148Z,13.00
2019-05-12T14:53:14.437Z,13.00
2019-05-12T14:55:43.891Z,12.90
2019-05-12T14:58:17.673Z,12.80
2019-05-12T15:00:44.596Z,12.70
2019-05-12T15:03:16.284Z,12.60
2019-05-12T15:05:47.410Z,12.60
2019-05-12T15:08:20.319Z,12.40
2019-05-12T15:10:45.163Z,12.40
2019-05-12T15:13:14.213Z,12.20
2019-05-12T15:15:44.099Z,12.20
2019-05-12T15:18:15.799Z,12.00
2019-05-12T15:20:49.753Z,11.90
2019-05-12T15:23:14.528Z,11.80
2019-05-12T15:25:43.478Z,11.70
2019-05-12T15:28:14.403Z,11.60
2019-05-12T15:30:43.619Z,11.60
2019-05-12T15:33:13.915Z,11.60
2019-05-12T15:35:43.939Z,11.40
2019-05-12T15:38:14.801Z,11.10
2019-05-12T15:40:43.570Z,11.10
2019-05-12T15:43:13.899Z,11.10
2019-05-12T15:45:43.642Z,11.10
2019-05-12T15:48:14.487Z,11.00
2019-05-12T15:50:45.665Z,11.00
2019-05-12T15:53:21.767Z,11.00
2019-05-12T15:55:44.182Z,10.90
2019-05-12T15:58:14.087Z,10.90
2019-05-12T16:00:43.920Z,10.90
2019-05-12T16:03:13.016Z,10.90
2019-05-12T16:05:44.376Z,10.80
2019-05-12T16:08:14.274Z,10.70
2019-05-12T16:10:43.078Z,10.60
2019-05-12T16:13:15.507Z,10.50
2019-05-12T16:15:43.832Z,10.40
2019-05-12T16:18:14.416Z,10.30
2019-05-12T16:20:44.148Z,10.30
2019-05-12T16:23:23.777Z,10.30
2019-05-12T16:25:45.407Z,10.20
2019-05-12T16:28:20.794Z,10.00
2019-05-12T16:30:47.227Z,10.00
2019-05-12T16:33:20.520Z,9.90
2019-05-12T16:35:45.772Z,9.90
2019-05-12T16:38:19.651Z,9.70
2019-05-12T16:40:48.533Z,9.70
2019-05-12T16:43:15.036Z,9.70
2019-05-12T16:45:43.989Z,9.70
2019-05-12T16:48:28.446Z,9.70
2019-05-12T16:50:43.806Z,9.60
2019-05-12T16:53:21.379Z,9.70
2019-05-12T16:55:46.528Z,9.60
2019-05-12T16:58:13.587Z,9.60
2019-05-12T17:00:45.261Z,9.50
2019-05-12T17:03:14.452Z,9.40
2019-05-12T17:05:43.718Z,9.40
2019-05-12T17:08:13.860Z,9.30
2019-05-12T17:10:49.742Z,9.30
2019-05-12T17:13:16.066Z,9.30
2019-05-12T17:15:48.679Z,9.40
2019-05-12T17:18:15.019Z,9.40
2019-05-12T17:20:47.103Z,9.30
2019-05-12T17:23:14.342Z,9.30
2019-05-12T17:25:43.331Z,9.30
2019-05-12T17:28:13.304Z,9.30
2019-05-12T17:30:43.657Z,9.10
2019-05-12T17:33:21.953Z,9.20
2019-05-12T17:35:44.671Z,9.10
2019-05-12T17:38:20.010Z,9.20
2019-05-12T17:40:44.456Z,9.20
2019-05-12T17:43:13.351Z,9.10
2019-05-12T17:45:44.152Z,9.00
2019-05-12T17:48:14.262Z,9.00
2019-05-12T17:50:46.592Z,9.00
2019-05-12T17:53:13.820Z,8.90
2019-05-12T17:55:51.001Z,8.90
2019-05-12T17:58:13.704Z,8.90
2019-05-12T18:00:47.635Z,8.90
2019-05-12T18:03:21.241Z,8.90
2019-05-12T18:05:47.913Z,8.90
2019-05-12T18:08:14.457Z,8.90
2019-05-12T18:10:43.664Z,9.00
2019-05-12T18:13:17.514Z,9.00
2019-05-12T18:15:44.183Z,9.00
2019-05-12T18:18:16.807Z,8.90
2019-05-12T18:20:44.530Z,8.80
2019-05-12T18:23:13.608Z,8.80
2019-05-12T18:25:44.179Z,8.90
2019-05-12T18:28:14.070Z,8.90
2019-05-12T18:30:43.242Z,8.90
2019-05-12T18:33:13.771Z,8.90
2019-05-12T18:35:43.794Z,8.90
2019-05-12T18:38:18.040Z,8.80
2019-05-12T18:40:43.008Z,8.80
2019-05-12T18:43:13.997Z,8.80
2019-05-12T18:45:42.528Z,8.80
2019-05-12T18:48:18.153Z,8.60
2019-05-12T18:50:44.053Z,8.70
2019-05-12T18:53:16.650Z,8.70
2019-05-12T18:55:44.306Z,8.60
2019-05-12T18:58:14.831Z,8.60
2019-05-12T19:00:43.705Z,8.60
2019-05-12T19:03:14.085Z,8.60
2019-05-12T19:05:43.716Z,8.60
2019-05-12T19:08:14.076Z,8.70
2019-05-12T19:10:44.403Z,8.70
2019-05-12T19:13:14.065Z,8.80
2019-05-12T19:15:44.101Z,8.70
2019-05-12T19:18:18.121Z,8.70
2019-05-12T19:20:43.769Z,8.70
2019-05-12T19:23:14.220Z,8.70
2019-05-12T19:25:43.791Z,8.70
2019-05-12T19:28:13.566Z,8.70
2019-05-12T19:30:43.747Z,8.80
2019-05-12T19:33:13.603Z,8.70
2019-05-12T19:35:42.848Z,8.70
2019-05-12T19:38:15.089Z,8.60
2019-05-12T19:40:47.245Z,8.50
2019-05-12T19:43:14.120Z,8.50
2019-05-12T19:45:43.577Z,8.50
2019-05-12T19:48:23.651Z,8.40
2019-05-12T19:50:44.414Z,8.40
2019-05-12T19:53:13.674Z,8.40
2019-05-12T19:55:44.308Z,8.40
2019-05-12T19:58:13.110Z,8.40
2019-05-12T20:00:43.829Z,8.40
2019-05-12T20:03:13.910Z,8.40
2019-05-12T20:05:43.468Z,8.40
2019-05-12T20:08:13.680Z,8.40
2019-05-12T20:10:49.270Z,8.30
2019-05-12T20:13:13.772Z,8.20
2019-05-12T20:15:43.681Z,8.20
2019-05-12T20:18:14.634Z,8.10
2019-05-12T20:20:44.753Z,8.10
2019-05-12T20:23:14.237Z,8.20
2019-05-12T20:25:44.239Z,8.20
2019-05-12T20:28:14.395Z,8.30
2019-05-12T20:30:44.122Z,8.20
2019-05-12T20:33:13.736Z,8.20
2019-05-12T20:35:47.335Z,8.20
2019-05-12T20:38:14.892Z,8.20
2019-05-12T20:40:43.887Z,8.20
2019-05-12T20:43:14.829Z,8.20
2019-05-12T20:45:45.539Z,8.20
2019-05-12T20:48:14.509Z,8.20
2019-05-12T20:50:43.624Z,8.20
2019-05-12T20:53:14.340Z,8.20
2019-05-12T20:55:44.324Z,8.20
2019-05-12T20:58:13.680Z,8.20
2019-05-12T21:00:45.409Z,8.00
2019-05-12T21:03:13.898Z,8.10
2019-05-12T21:05:42.928Z,8.00
2019-05-12T21:08:12.930Z,7.90
2019-05-12T21:10:43.819Z,7.80
2019-05-12T21:13:14.746Z,7.70
2019-05-12T21:15:45.658Z,7.70
2019-05-12T21:18:14.629Z,7.80
2019-05-12T21:20:46.344Z,7.80
2019-05-12T21:23:14.474Z,7.90
2019-05-12T21:25:51.965Z,8.00
2019-05-12T21:28:14.821Z,8.00
2019-05-12T21:30:48.537Z,7.90
2019-05-12T21:33:14.759Z,8.00
2019-05-12T21:35:46.082Z,7.90
2019-05-12T21:38:18.701Z,7.90
2019-05-12T21:40:44.270Z,8.00
2019-05-12T21:43:13.505Z,8.00
2019-05-12T21:45:42.666Z,8.10
2019-05-12T21:48:15.103Z,8.10
2019-05-12T21:50:44.114Z,8.00
2019-05-12T21:53:17.670Z,8.00
2019-05-12T21:55:44.381Z,8.00
2019-05-12T21:58:15.337Z,8.00
2019-05-12T22:00:50.357Z,8.00
2019-05-12T22:03:19.863Z,8.00
2019-05-12T22:05:54.630Z,8.00
2019-05-12T22:08:23.124Z,8.00
2019-05-12T22:10:53.985Z,8.00
2019-05-12T22:13:21.344Z,7.90
2019-05-12T22:15:51.248Z,8.00
2019-05-12T22:18:20.666Z,8.00
2019-05-12T22:20:54.408Z,8.00
2019-05-12T22:23:19.982Z,8.10
2019-05-12T22:25:49.015Z,8.10
2019-05-12T22:28:19.402Z,8.10
2019-05-12T22:30:48.393Z,8.10
2019-05-12T22:33:17.279Z,8.00
2019-05-12T22:35:46.148Z,7.90
2019-05-12T22:38:19.641Z,7.90
2019-05-12T22:40:49.156Z,8.00
2019-05-12T22:43:15.907Z,7.90
2019-05-12T22:45:49.202Z,8.00
2019-05-12T22:48:15.204Z,8.00
2019-05-12T22:50:44.115Z,8.00
2019-05-12T22:53:13.384Z,8.00
2019-05-12T22:55:42.619Z,8.10
2019-05-12T22:58:18.324Z,8.10
2019-05-12T23:00:44.279Z,8.10
2019-05-12T23:03:14.730Z,8.10
2019-05-12T23:05:42.373Z,8.10
2019-05-12T23:08:13.797Z,8.10
2019-05-12T23:10:51.123Z,8.10
2019-05-12T23:13:13.614Z,8.10
2019-05-12T23:15:45.288Z,8.00
2019-05-12T23:18:13.887Z,7.90
2019-05-12T23:20:43.837Z,7.80
2019-05-12T23:23:15.463Z,7.90
2019-05-12T23:25:44.092Z,7.90
2019-05-12T23:28:13.134Z,7.90
2019-05-12T23:30:43.871Z,8.00
2019-05-12T23:33:14.056Z,8.00
2019-05-12T23:35:44.379Z,8.00
2019-05-12T23:38:18.847Z,8.10
2019-05-12T23:40:43.957Z,8.10
2019-05-12T23:43:14.539Z,8.00
2019-05-12T23:45:44.466Z,8.10
2019-05-12T23:48:14.309Z,8.10
2019-05-12T23:50:43.772Z,8.10
2019-05-12T23:53:14.008Z,8.10
2019-05-12T23:55:43.801Z,8.10
2019-05-12T23:58:14.483Z,8.00
